sensor_id;sensor_type;location;lat;lon;timestamp;P1;durP1;ratioP1;P2;durP2;ratioP2
59587;SDS011;45412;54.472;18.464;2022-11-09T00:02:57;15.00;;;7.00;;
59587;SDS011;45412;54.472;18.464;2022-11-09T00:05:55;14.60;;;6.20;;
59587;SDS011;45412;54.472;18.464;2022-11-09T00:08:44;15.10;;;6.80;;
59587;SDS011;45412;54.472;18.464;2022-11-09T00:11:32;14.40;;;6.70;;
59587;SDS011;45412;54.472;18.464;2022-11-09T00:14:20;15.50;;;6.30;;
59587;SDS011;45412;54.472;18.464;2022-11-09T00:17:08;16.80;;;6.20;;
59587;SDS011;45412;54.472;18.464;2022-11-09T00:19:56;14.50;;;6.40;;
59587;SDS011;45412;54.472;18.464;2022-11-09T00:22:47;12.70;;;6.30;;
59587;SDS011;45412;54.472;18.464;2022-11-09T00:25:36;13.30;;;6.50;;
59587;SDS011;45412;54.472;18.464;2022-11-09T00:28:24;15.30;;;6.40;;
59587;SDS011;45412;54.472;18.464;2022-11-09T00:31:18;16.50;;;7.10;;
59587;SDS011;45412;54.472;18.464;2022-11-09T00:34:07;12.00;;;5.90;;
59587;SDS011;45412;54.472;18.464;2022-11-09T00:36:55;15.30;;;6.30;;
59587;SDS011;45412;54.472;18.464;2022-11-09T00:39:42;13.60;;;6.10;;
59587;SDS011;45412;54.472;18.464;2022-11-09T00:42:30;14.80;;;6.60;;
59587;SDS011;45412;54.472;18.464;2022-11-09T00:45:18;15.30;;;7.20;;
59587;SDS011;45412;54.472;18.464;2022-11-09T00:48:07;14.30;;;6.70;;
59587;SDS011;45412;54.472;18.464;2022-11-09T00:50:56;12.70;;;5.90;;
59587;SDS011;45412;54.472;18.464;2022-11-09T00:53:44;18.40;;;7.40;;
59587;SDS011;45412;54.472;18.464;2022-11-09T00:56:34;15.80;;;7.50;;
59587;SDS011;45412;54.472;18.464;2022-11-09T00:59:22;15.30;;;6.80;;
59587;SDS011;45412;54.472;18.464;2022-11-09T01:02:13;13.40;;;6.30;;
59587;SDS011;45412;54.472;18.464;2022-11-09T01:05:01;13.80;;;6.50;;
59587;SDS011;45412;54.472;18.464;2022-11-09T01:07:49;13.30;;;6.50;;
59587;SDS011;45412;54.472;18.464;2022-11-09T01:10:45;14.90;;;6.90;;
59587;SDS011;45412;54.472;18.464;2022-11-09T01:13:35;13.50;;;6.40;;
59587;SDS011;45412;54.472;18.464;2022-11-09T01:16:26;14.00;;;6.20;;
59587;SDS011;45412;54.472;18.464;2022-11-09T01:19:15;14.10;;;6.60;;
59587;SDS011;45412;54.472;18.464;2022-11-09T01:22:04;13.80;;;6.70;;
59587;SDS011;45412;54.472;18.464;2022-11-09T01:24:52;13.50;;;6.60;;
59587;SDS011;45412;54.472;18.464;2022-11-09T01:27:40;15.70;;;7.60;;
59587;SDS011;45412;54.472;18.464;2022-11-09T01:30:33;15.40;;;6.90;;
59587;SDS011;45412;54.472;18.464;2022-11-09T01:33:23;14.40;;;7.20;;
59587;SDS011;45412;54.472;18.464;2022-11-09T01:36:13;15.00;;;6.40;;
59587;SDS011;45412;54.472;18.464;2022-11-09T01:39:05;13.70;;;7.30;;
59587;SDS011;45412;54.472;18.464;2022-11-09T01:41:56;14.20;;;7.10;;
59587;SDS011;45412;54.472;18.464;2022-11-09T01:44:44;15.20;;;6.90;;
59587;SDS011;45412;54.472;18.464;2022-11-09T01:47:32;14.10;;;6.00;;
59587;SDS011;45412;54.472;18.464;2022-11-09T01:50:44;14.70;;;6.60;;
59587;SDS011;45412;54.472;18.464;2022-11-09T01:53:38;14.70;;;6.90;;
59587;SDS011;45412;54.472;18.464;2022-11-09T01:56:29;16.20;;;6.80;;
59587;SDS011;45412;54.472;18.464;2022-11-09T01:59:22;14.00;;;6.50;;
59587;SDS011;45412;54.472;18.464;2022-11-09T02:02:15;13.30;;;6.50;;
59587;SDS011;45412;54.472;18.464;2022-11-09T02:05:06;15.70;;;6.70;;
59587;SDS011;45412;54.472;18.464;2022-11-09T02:07:57;15.10;;;6.90;;
59587;SDS011;45412;54.472;18.464;2022-11-09T02:13:56;13.40;;;6.50;;
59587;SDS011;45412;54.472;18.464;2022-11-09T02:16:46;14.70;;;6.60;;
59587;SDS011;45412;54.472;18.464;2022-11-09T02:19:34;14.30;;;6.60;;
59587;SDS011;45412;54.472;18.464;2022-11-09T02:22:26;14.60;;;6.10;;
59587;SDS011;45412;54.472;18.464;2022-11-09T02:25:14;15.40;;;6.80;;
59587;SDS011;45412;54.472;18.464;2022-11-09T02:28:03;13.80;;;5.20;;
59587;SDS011;45412;54.472;18.464;2022-11-09T02:30:53;13.90;;;7.50;;
59587;SDS011;45412;54.472;18.464;2022-11-09T02:36:38;13.40;;;6.20;;
59587;SDS011;45412;54.472;18.464;2022-11-09T02:39:29;13.80;;;6.30;;
59587;SDS011;45412;54.472;18.464;2022-11-09T02:42:17;15.80;;;6.00;;
59587;SDS011;45412;54.472;18.464;2022-11-09T02:45:09;18.50;;;7.00;;
59587;SDS011;45412;54.472;18.464;2022-11-09T02:47:58;14.80;;;6.80;;
59587;SDS011;45412;54.472;18.464;2022-11-09T02:50:47;13.50;;;6.70;;
59587;SDS011;45412;54.472;18.464;2022-11-09T02:53:34;12.60;;;5.90;;
59587;SDS011;45412;54.472;18.464;2022-11-09T02:56:23;14.40;;;6.10;;
59587;SDS011;45412;54.472;18.464;2022-11-09T02:59:14;15.90;;;6.60;;
59587;SDS011;45412;54.472;18.464;2022-11-09T03:02:02;14.10;;;6.50;;
59587;SDS011;45412;54.472;18.464;2022-11-09T03:04:50;15.10;;;6.90;;
59587;SDS011;45412;54.472;18.464;2022-11-09T03:07:38;14.90;;;7.00;;
59587;SDS011;45412;54.472;18.464;2022-11-09T03:10:27;14.70;;;6.70;;
59587;SDS011;45412;54.472;18.464;2022-11-09T03:13:18;14.70;;;6.40;;
59587;SDS011;45412;54.472;18.464;2022-11-09T03:16:07;13.50;;;6.10;;
59587;SDS011;45412;54.472;18.464;2022-11-09T03:18:58;13.70;;;6.80;;
59587;SDS011;45412;54.472;18.464;2022-11-09T03:21:47;16.60;;;6.60;;
59587;SDS011;45412;54.472;18.464;2022-11-09T03:24:35;15.10;;;6.90;;
59587;SDS011;45412;54.472;18.464;2022-11-09T03:27:23;15.70;;;7.00;;
59587;SDS011;45412;54.472;18.464;2022-11-09T03:30:11;13.80;;;6.40;;
59587;SDS011;45412;54.472;18.464;2022-11-09T03:33:00;13.10;;;6.50;;
59587;SDS011;45412;54.472;18.464;2022-11-09T03:35:56;16.50;;;7.40;;
59587;SDS011;45412;54.472;18.464;2022-11-09T03:38:44;16.60;;;7.60;;
59587;SDS011;45412;54.472;18.464;2022-11-09T03:41:33;14.10;;;6.40;;
59587;SDS011;45412;54.472;18.464;2022-11-09T03:44:22;16.30;;;7.20;;
59587;SDS011;45412;54.472;18.464;2022-11-09T03:47:10;14.70;;;7.10;;
59587;SDS011;45412;54.472;18.464;2022-11-09T03:49:58;15.40;;;7.10;;
59587;SDS011;45412;54.472;18.464;2022-11-09T03:52:46;16.40;;;7.40;;
59587;SDS011;45412;54.472;18.464;2022-11-09T03:55:34;15.60;;;7.40;;
59587;SDS011;45412;54.472;18.464;2022-11-09T03:58:24;15.30;;;6.90;;
59587;SDS011;45412;54.472;18.464;2022-11-09T04:01:12;16.40;;;8.20;;
59587;SDS011;45412;54.472;18.464;2022-11-09T04:04:01;15.50;;;7.90;;
59587;SDS011;45412;54.472;18.464;2022-11-09T04:06:49;15.30;;;7.30;;
59587;SDS011;45412;54.472;18.464;2022-11-09T04:09:37;19.30;;;7.40;;
59587;SDS011;45412;54.472;18.464;2022-11-09T04:12:25;16.40;;;7.20;;
59587;SDS011;45412;54.472;18.464;2022-11-09T04:15:13;15.40;;;7.70;;
59587;SDS011;45412;54.472;18.464;2022-11-09T04:18:02;15.60;;;7.10;;
59587;SDS011;45412;54.472;18.464;2022-11-09T04:20:50;16.80;;;7.40;;
59587;SDS011;45412;54.472;18.464;2022-11-09T04:23:37;15.30;;;6.90;;
59587;SDS011;45412;54.472;18.464;2022-11-09T04:26:26;18.20;;;8.20;;
59587;SDS011;45412;54.472;18.464;2022-11-09T04:29:14;17.80;;;7.80;;
59587;SDS011;45412;54.472;18.464;2022-11-09T04:32:01;15.80;;;8.10;;
59587;SDS011;45412;54.472;18.464;2022-11-09T04:34:49;15.50;;;7.80;;
59587;SDS011;45412;54.472;18.464;2022-11-09T04:37:37;18.70;;;8.00;;
59587;SDS011;45412;54.472;18.464;2022-11-09T04:40:26;16.80;;;7.70;;
59587;SDS011;45412;54.472;18.464;2022-11-09T04:43:16;16.30;;;7.30;;
59587;SDS011;45412;54.472;18.464;2022-11-09T04:46:05;15.20;;;8.20;;
59587;SDS011;45412;54.472;18.464;2022-11-09T04:48:53;13.50;;;7.00;;
59587;SDS011;45412;54.472;18.464;2022-11-09T04:51:41;16.70;;;8.00;;
59587;SDS011;45412;54.472;18.464;2022-11-09T04:54:29;17.20;;;8.00;;
59587;SDS011;45412;54.472;18.464;2022-11-09T04:57:17;15.70;;;7.90;;
59587;SDS011;45412;54.472;18.464;2022-11-09T05:00:05;15.40;;;7.60;;
59587;SDS011;45412;54.472;18.464;2022-11-09T05:02:53;16.30;;;7.50;;
59587;SDS011;45412;54.472;18.464;2022-11-09T05:05:41;17.70;;;7.40;;
59587;SDS011;45412;54.472;18.464;2022-11-09T05:08:34;17.10;;;7.40;;
59587;SDS011;45412;54.472;18.464;2022-11-09T05:11:22;18.60;;;8.40;;
59587;SDS011;45412;54.472;18.464;2022-11-09T05:14:11;17.40;;;8.40;;
59587;SDS011;45412;54.472;18.464;2022-11-09T05:16:59;20.60;;;8.30;;
59587;SDS011;45412;54.472;18.464;2022-11-09T05:19:46;16.10;;;8.10;;
59587;SDS011;45412;54.472;18.464;2022-11-09T05:22:40;16.40;;;8.40;;
59587;SDS011;45412;54.472;18.464;2022-11-09T05:25:46;19.20;;;9.10;;
59587;SDS011;45412;54.472;18.464;2022-11-09T05:28:34;19.30;;;9.30;;
59587;SDS011;45412;54.472;18.464;2022-11-09T05:31:22;20.90;;;9.70;;
59587;SDS011;45412;54.472;18.464;2022-11-09T05:34:11;16.60;;;9.10;;
59587;SDS011;45412;54.472;18.464;2022-11-09T05:37:00;19.30;;;9.10;;
59587;SDS011;45412;54.472;18.464;2022-11-09T05:39:50;20.40;;;9.50;;
59587;SDS011;45412;54.472;18.464;2022-11-09T05:42:38;16.40;;;8.90;;
59587;SDS011;45412;54.472;18.464;2022-11-09T05:45:29;17.60;;;9.10;;
59587;SDS011;45412;54.472;18.464;2022-11-09T05:48:33;17.40;;;9.30;;
59587;SDS011;45412;54.472;18.464;2022-11-09T05:51:21;18.90;;;9.70;;
59587;SDS011;45412;54.472;18.464;2022-11-09T05:54:09;20.30;;;9.30;;
59587;SDS011;45412;54.472;18.464;2022-11-09T05:56:57;17.70;;;9.20;;
59587;SDS011;45412;54.472;18.464;2022-11-09T05:59:45;17.50;;;9.00;;
59587;SDS011;45412;54.472;18.464;2022-11-09T06:02:33;18.40;;;9.10;;
59587;SDS011;45412;54.472;18.464;2022-11-09T06:05:21;21.00;;;10.80;;
59587;SDS011;45412;54.472;18.464;2022-11-09T06:08:12;21.80;;;9.70;;
59587;SDS011;45412;54.472;18.464;2022-11-09T06:11:06;18.60;;;8.80;;
59587;SDS011;45412;54.472;18.464;2022-11-09T06:13:55;18.30;;;9.80;;
59587;SDS011;45412;54.472;18.464;2022-11-09T06:16:43;20.30;;;9.40;;
59587;SDS011;45412;54.472;18.464;2022-11-09T06:19:31;18.40;;;10.10;;
59587;SDS011;45412;54.472;18.464;2022-11-09T06:22:19;22.80;;;10.40;;
59587;SDS011;45412;54.472;18.464;2022-11-09T06:25:11;22.40;;;10.60;;
59587;SDS011;45412;54.472;18.464;2022-11-09T06:27:58;20.70;;;10.30;;
59587;SDS011;45412;54.472;18.464;2022-11-09T06:30:46;21.60;;;10.20;;
59587;SDS011;45412;54.472;18.464;2022-11-09T06:33:35;20.80;;;9.70;;
59587;SDS011;45412;54.472;18.464;2022-11-09T06:36:23;21.90;;;9.50;;
59587;SDS011;45412;54.472;18.464;2022-11-09T06:39:11;24.00;;;9.30;;
59587;SDS011;45412;54.472;18.464;2022-11-09T06:41:59;22.00;;;10.20;;
59587;SDS011;45412;54.472;18.464;2022-11-09T06:44:47;21.60;;;10.30;;
59587;SDS011;45412;54.472;18.464;2022-11-09T06:47:35;20.20;;;9.80;;
59587;SDS011;45412;54.472;18.464;2022-11-09T06:50:24;23.70;;;10.20;;
59587;SDS011;45412;54.472;18.464;2022-11-09T06:53:15;20.30;;;10.10;;
59587;SDS011;45412;54.472;18.464;2022-11-09T06:56:05;20.50;;;10.20;;
59587;SDS011;45412;54.472;18.464;2022-11-09T06:58:54;17.50;;;9.10;;
59587;SDS011;45412;54.472;18.464;2022-11-09T07:01:42;16.90;;;8.30;;
59587;SDS011;45412;54.472;18.464;2022-11-09T07:04:29;20.90;;;10.70;;
59587;SDS011;45412;54.472;18.464;2022-11-09T07:07:17;22.70;;;11.20;;
59587;SDS011;45412;54.472;18.464;2022-11-09T07:10:12;19.80;;;10.30;;
59587;SDS011;45412;54.472;18.464;2022-11-09T07:13:00;20.30;;;9.00;;
59587;SDS011;45412;54.472;18.464;2022-11-09T07:15:52;21.80;;;10.10;;
59587;SDS011;45412;54.472;18.464;2022-11-09T07:18:41;22.10;;;10.70;;
59587;SDS011;45412;54.472;18.464;2022-11-09T07:21:29;22.80;;;9.90;;
59587;SDS011;45412;54.472;18.464;2022-11-09T07:24:17;24.00;;;11.00;;
59587;SDS011;45412;54.472;18.464;2022-11-09T07:27:05;22.50;;;10.20;;
59587;SDS011;45412;54.472;18.464;2022-11-09T07:29:53;23.70;;;11.10;;
59587;SDS011;45412;54.472;18.464;2022-11-09T07:32:41;19.60;;;9.70;;
59587;SDS011;45412;54.472;18.464;2022-11-09T07:35:50;24.20;;;11.10;;
59587;SDS011;45412;54.472;18.464;2022-11-09T07:38:37;26.10;;;10.90;;
59587;SDS011;45412;54.472;18.464;2022-11-09T07:41:25;23.60;;;11.10;;
59587;SDS011;45412;54.472;18.464;2022-11-09T07:44:20;23.40;;;11.00;;
59587;SDS011;45412;54.472;18.464;2022-11-09T07:47:09;25.90;;;12.10;;
59587;SDS011;45412;54.472;18.464;2022-11-09T07:50:04;22.20;;;11.40;;
59587;SDS011;45412;54.472;18.464;2022-11-09T07:52:54;24.20;;;11.90;;
59587;SDS011;45412;54.472;18.464;2022-11-09T07:55:43;23.80;;;9.80;;
59587;SDS011;45412;54.472;18.464;2022-11-09T07:58:31;18.60;;;10.70;;
59587;SDS011;45412;54.472;18.464;2022-11-09T08:01:20;25.00;;;11.70;;
59587;SDS011;45412;54.472;18.464;2022-11-09T08:04:09;21.20;;;11.00;;
59587;SDS011;45412;54.472;18.464;2022-11-09T08:06:57;19.70;;;9.70;;
59587;SDS011;45412;54.472;18.464;2022-11-09T08:09:45;20.30;;;11.10;;
59587;SDS011;45412;54.472;18.464;2022-11-09T08:12:33;19.50;;;10.00;;
59587;SDS011;45412;54.472;18.464;2022-11-09T08:15:24;18.00;;;9.50;;
59587;SDS011;45412;54.472;18.464;2022-11-09T08:18:15;19.30;;;10.30;;
59587;SDS011;45412;54.472;18.464;2022-11-09T08:21:06;21.00;;;11.00;;
59587;SDS011;45412;54.472;18.464;2022-11-09T08:23:54;20.50;;;10.90;;
59587;SDS011;45412;54.472;18.464;2022-11-09T08:26:42;19.40;;;10.30;;
59587;SDS011;45412;54.472;18.464;2022-11-09T08:29:30;21.30;;;11.20;;
59587;SDS011;45412;54.472;18.464;2022-11-09T08:32:17;23.00;;;11.00;;
59587;SDS011;45412;54.472;18.464;2022-11-09T08:35:06;18.80;;;10.10;;
59587;SDS011;45412;54.472;18.464;2022-11-09T08:37:59;19.60;;;9.40;;
59587;SDS011;45412;54.472;18.464;2022-11-09T08:40:49;18.10;;;9.70;;
59587;SDS011;45412;54.472;18.464;2022-11-09T08:43:42;17.80;;;9.90;;
59587;SDS011;45412;54.472;18.464;2022-11-09T08:46:30;19.00;;;10.10;;
59587;SDS011;45412;54.472;18.464;2022-11-09T08:49:24;18.10;;;9.60;;
59587;SDS011;45412;54.472;18.464;2022-11-09T08:52:14;18.30;;;9.20;;
59587;SDS011;45412;54.472;18.464;2022-11-09T08:55:03;16.10;;;9.10;;
59587;SDS011;45412;54.472;18.464;2022-11-09T08:57:56;17.60;;;9.60;;
59587;SDS011;45412;54.472;18.464;2022-11-09T09:00:45;18.70;;;9.70;;
59587;SDS011;45412;54.472;18.464;2022-11-09T09:03:33;19.30;;;9.20;;
59587;SDS011;45412;54.472;18.464;2022-11-09T09:06:21;17.00;;;8.90;;
59587;SDS011;45412;54.472;18.464;2022-11-09T09:09:16;17.20;;;9.10;;
59587;SDS011;45412;54.472;18.464;2022-11-09T09:12:05;16.00;;;8.80;;
59587;SDS011;45412;54.472;18.464;2022-11-09T09:14:55;17.70;;;8.90;;
59587;SDS011;45412;54.472;18.464;2022-11-09T09:17:42;19.80;;;9.10;;
59587;SDS011;45412;54.472;18.464;2022-11-09T09:20:31;21.60;;;9.30;;
59587;SDS011;45412;54.472;18.464;2022-11-09T09:23:19;29.70;;;9.70;;
59587;SDS011;45412;54.472;18.464;2022-11-09T09:26:07;31.60;;;10.00;;
59587;SDS011;45412;54.472;18.464;2022-11-09T09:28:56;30.50;;;9.90;;
59587;SDS011;45412;54.472;18.464;2022-11-09T09:31:44;23.50;;;9.20;;
59587;SDS011;45412;54.472;18.464;2022-11-09T09:34:32;19.70;;;8.80;;
59587;SDS011;45412;54.472;18.464;2022-11-09T09:37:20;18.70;;;9.10;;
59587;SDS011;45412;54.472;18.464;2022-11-09T09:40:19;17.90;;;8.90;;
59587;SDS011;45412;54.472;18.464;2022-11-09T09:43:28;20.10;;;9.60;;
59587;SDS011;45412;54.472;18.464;2022-11-09T09:46:35;19.20;;;8.90;;
59587;SDS011;45412;54.472;18.464;2022-11-09T09:49:29;23.50;;;9.80;;
59587;SDS011;45412;54.472;18.464;2022-11-09T09:55:37;19.40;;;9.60;;
59587;SDS011;45412;54.472;18.464;2022-11-09T09:58:30;20.00;;;9.50;;
59587;SDS011;45412;54.472;18.464;2022-11-09T10:01:22;20.70;;;10.20;;
59587;SDS011;45412;54.472;18.464;2022-11-09T10:04:23;21.60;;;8.90;;
59587;SDS011;45412;54.472;18.464;2022-11-09T10:10:37;19.30;;;8.50;;
59587;SDS011;45412;54.472;18.464;2022-11-09T10:13:53;20.70;;;9.50;;
59587;SDS011;45412;54.472;18.464;2022-11-09T10:24:13;19.60;;;8.60;;
59587;SDS011;45412;54.472;18.464;2022-11-09T10:28:03;19.80;;;10.10;;
59587;SDS011;45412;54.472;18.464;2022-11-09T10:30:45;18.10;;;8.60;;
59587;SDS011;45412;54.472;18.464;2022-11-09T10:33:34;18.40;;;9.40;;
59587;SDS011;45412;54.472;18.464;2022-11-09T10:36:27;17.20;;;8.80;;
59587;SDS011;45412;54.472;18.464;2022-11-09T10:39:16;18.20;;;8.80;;
59587;SDS011;45412;54.472;18.464;2022-11-09T10:42:22;18.00;;;9.90;;
59587;SDS011;45412;54.472;18.464;2022-11-09T10:45:40;16.60;;;9.10;;
59587;SDS011;45412;54.472;18.464;2022-11-09T10:48:48;17.10;;;9.50;;
59587;SDS011;45412;54.472;18.464;2022-11-09T10:51:56;19.70;;;9.20;;
59587;SDS011;45412;54.472;18.464;2022-11-09T10:58:36;18.10;;;9.90;;
59587;SDS011;45412;54.472;18.464;2022-11-09T11:01:45;18.80;;;9.60;;
59587;SDS011;45412;54.472;18.464;2022-11-09T11:08:27;18.00;;;8.80;;
59587;SDS011;45412;54.472;18.464;2022-11-09T11:11:37;17.70;;;9.20;;
59587;SDS011;45412;54.472;18.464;2022-11-09T11:14:45;24.00;;;10.10;;
59587;SDS011;45412;54.472;18.464;2022-11-09T11:17:59;19.60;;;9.50;;
59587;SDS011;45412;54.472;18.464;2022-11-09T11:21:15;19.60;;;9.40;;
59587;SDS011;45412;54.472;18.464;2022-11-09T11:24:29;16.90;;;8.60;;
59587;SDS011;45412;54.472;18.464;2022-11-09T11:28:34;17.20;;;9.00;;
59587;SDS011;45412;54.472;18.464;2022-11-09T11:31:43;17.30;;;9.70;;
59587;SDS011;45412;54.472;18.464;2022-11-09T11:34:49;17.90;;;9.50;;
59587;SDS011;45412;54.472;18.464;2022-11-09T11:38:19;17.20;;;9.30;;
59587;SDS011;45412;54.472;18.464;2022-11-09T11:52:41;18.60;;;8.90;;
59587;SDS011;45412;54.472;18.464;2022-11-09T11:56:37;19.40;;;9.00;;
59587;SDS011;45412;54.472;18.464;2022-11-09T12:18:07;19.90;;;8.80;;
59587;SDS011;45412;54.472;18.464;2022-11-09T12:29:23;18.60;;;10.10;;
59587;SDS011;45412;54.472;18.464;2022-11-09T12:36:58;16.50;;;7.60;;
59587;SDS011;45412;54.472;18.464;2022-11-09T12:40:31;17.50;;;8.60;;
59587;SDS011;45412;54.472;18.464;2022-11-09T12:46:56;14.50;;;7.60;;
59587;SDS011;45412;54.472;18.464;2022-11-09T12:50:18;17.50;;;8.80;;
59587;SDS011;45412;54.472;18.464;2022-11-09T12:53:28;21.90;;;9.00;;
59587;SDS011;45412;54.472;18.464;2022-11-09T12:56:42;15.70;;;8.20;;
59587;SDS011;45412;54.472;18.464;2022-11-09T12:59:59;17.70;;;8.50;;
59587;SDS011;45412;54.472;18.464;2022-11-09T13:03:12;18.60;;;9.90;;
59587;SDS011;45412;54.472;18.464;2022-11-09T13:06:29;14.90;;;7.10;;
59587;SDS011;45412;54.472;18.464;2022-11-09T13:09:38;15.60;;;8.60;;
59587;SDS011;45412;54.472;18.464;2022-11-09T13:12:55;15.90;;;8.10;;
59587;SDS011;45412;54.472;18.464;2022-11-09T13:16:31;15.90;;;7.70;;
59587;SDS011;45412;54.472;18.464;2022-11-09T13:25:53;16.10;;;8.10;;
59587;SDS011;45412;54.472;18.464;2022-11-09T13:29:25;17.20;;;8.50;;
59587;SDS011;45412;54.472;18.464;2022-11-09T13:32:33;16.10;;;8.50;;
59587;SDS011;45412;54.472;18.464;2022-11-09T13:39:20;17.60;;;8.70;;
59587;SDS011;45412;54.472;18.464;2022-11-09T13:42:33;18.10;;;9.10;;
59587;SDS011;45412;54.472;18.464;2022-11-09T13:48:59;16.90;;;9.20;;
59587;SDS011;45412;54.472;18.464;2022-11-09T13:55:53;20.60;;;10.40;;
59587;SDS011;45412;54.472;18.464;2022-11-09T14:02:23;18.20;;;8.90;;
59587;SDS011;45412;54.472;18.464;2022-11-09T14:05:32;17.70;;;9.20;;
59587;SDS011;45412;54.472;18.464;2022-11-09T14:08:40;19.40;;;9.80;;
59587;SDS011;45412;54.472;18.464;2022-11-09T14:12:15;18.00;;;9.50;;
59587;SDS011;45412;54.472;18.464;2022-11-09T14:22:25;20.90;;;10.40;;
59587;SDS011;45412;54.472;18.464;2022-11-09T14:25:36;20.00;;;9.70;;
59587;SDS011;45412;54.472;18.464;2022-11-09T14:28:43;19.40;;;10.40;;
59587;SDS011;45412;54.472;18.464;2022-11-09T14:31:49;19.60;;;10.50;;
59587;SDS011;45412;54.472;18.464;2022-11-09T14:35:13;19.00;;;9.10;;
59587;SDS011;45412;54.472;18.464;2022-11-09T14:38:26;20.20;;;11.30;;
59587;SDS011;45412;54.472;18.464;2022-11-09T14:41:38;23.30;;;11.30;;
59587;SDS011;45412;54.472;18.464;2022-11-09T14:44:49;18.60;;;10.40;;
59587;SDS011;45412;54.472;18.464;2022-11-09T14:47:57;20.40;;;10.40;;
59587;SDS011;45412;54.472;18.464;2022-11-09T14:51:06;20.20;;;11.10;;
59587;SDS011;45412;54.472;18.464;2022-11-09T14:54:21;18.70;;;10.50;;
59587;SDS011;45412;54.472;18.464;2022-11-09T14:57:32;18.20;;;10.40;;
59587;SDS011;45412;54.472;18.464;2022-11-09T15:00:39;18.40;;;9.90;;
59587;SDS011;45412;54.472;18.464;2022-11-09T15:04:13;21.00;;;11.60;;
59587;SDS011;45412;54.472;18.464;2022-11-09T15:07:31;22.90;;;11.50;;
59587;SDS011;45412;54.472;18.464;2022-11-09T15:10:47;21.00;;;10.50;;
59587;SDS011;45412;54.472;18.464;2022-11-09T15:13:54;20.80;;;11.30;;
59587;SDS011;45412;54.472;18.464;2022-11-09T15:17:16;21.30;;;11.30;;
59587;SDS011;45412;54.472;18.464;2022-11-09T15:20:34;20.50;;;10.40;;
59587;SDS011;45412;54.472;18.464;2022-11-09T15:23:43;21.60;;;11.50;;
59587;SDS011;45412;54.472;18.464;2022-11-09T15:26:52;21.90;;;12.50;;
59587;SDS011;45412;54.472;18.464;2022-11-09T15:30:24;20.90;;;10.60;;
59587;SDS011;45412;54.472;18.464;2022-11-09T15:33:54;21.30;;;11.30;;
59587;SDS011;45412;54.472;18.464;2022-11-09T15:37:02;23.10;;;10.70;;
59587;SDS011;45412;54.472;18.464;2022-11-09T15:40:12;35.60;;;10.40;;
59587;SDS011;45412;54.472;18.464;2022-11-09T15:43:21;23.60;;;10.50;;
59587;SDS011;45412;54.472;18.464;2022-11-09T15:46:32;21.20;;;10.10;;
59587;SDS011;45412;54.472;18.464;2022-11-09T15:49:42;21.10;;;10.70;;
59587;SDS011;45412;54.472;18.464;2022-11-09T15:52:49;23.80;;;10.60;;
59587;SDS011;45412;54.472;18.464;2022-11-09T15:55:55;17.70;;;10.00;;
59587;SDS011;45412;54.472;18.464;2022-11-09T15:59:02;20.00;;;11.00;;
59587;SDS011;45412;54.472;18.464;2022-11-09T16:02:09;20.70;;;11.50;;
59587;SDS011;45412;54.472;18.464;2022-11-09T16:05:16;16.00;;;9.10;;
59587;SDS011;45412;54.472;18.464;2022-11-09T16:08:24;21.40;;;10.90;;
59587;SDS011;45412;54.472;18.464;2022-11-09T16:11:31;18.80;;;10.70;;
59587;SDS011;45412;54.472;18.464;2022-11-09T16:14:37;21.20;;;10.80;;
59587;SDS011;45412;54.472;18.464;2022-11-09T16:17:48;20.70;;;12.30;;
59587;SDS011;45412;54.472;18.464;2022-11-09T16:21:12;20.90;;;10.30;;
59587;SDS011;45412;54.472;18.464;2022-11-09T16:24:20;21.40;;;11.20;;
59587;SDS011;45412;54.472;18.464;2022-11-09T16:27:27;20.60;;;12.00;;
59587;SDS011;45412;54.472;18.464;2022-11-09T16:30:57;20.30;;;11.20;;
59587;SDS011;45412;54.472;18.464;2022-11-09T16:34:03;22.40;;;12.50;;
59587;SDS011;45412;54.472;18.464;2022-11-09T16:37:11;23.30;;;12.50;;
59587;SDS011;45412;54.472;18.464;2022-11-09T16:40:18;28.40;;;14.50;;
59587;SDS011;45412;54.472;18.464;2022-11-09T16:43:32;31.70;;;16.10;;
59587;SDS011;45412;54.472;18.464;2022-11-09T16:46:44;29.80;;;15.00;;
59587;SDS011;45412;54.472;18.464;2022-11-09T16:49:52;32.20;;;14.90;;
59587;SDS011;45412;54.472;18.464;2022-11-09T16:52:59;29.50;;;15.20;;
59587;SDS011;45412;54.472;18.464;2022-11-09T16:56:13;28.30;;;13.60;;
59587;SDS011;45412;54.472;18.464;2022-11-09T16:59:21;24.00;;;11.80;;
59587;SDS011;45412;54.472;18.464;2022-11-09T17:02:30;22.10;;;10.60;;
59587;SDS011;45412;54.472;18.464;2022-11-09T17:05:36;23.00;;;11.50;;
59587;SDS011;45412;54.472;18.464;2022-11-09T17:08:43;24.30;;;13.70;;
59587;SDS011;45412;54.472;18.464;2022-11-09T17:11:50;26.80;;;14.40;;
59587;SDS011;45412;54.472;18.464;2022-11-09T17:14:56;28.50;;;13.90;;
59587;SDS011;45412;54.472;18.464;2022-11-09T17:18:04;26.00;;;13.50;;
59587;SDS011;45412;54.472;18.464;2022-11-09T17:21:16;25.30;;;12.70;;
59587;SDS011;45412;54.472;18.464;2022-11-09T17:24:22;24.80;;;13.60;;
59587;SDS011;45412;54.472;18.464;2022-11-09T17:27:36;23.00;;;13.10;;
59587;SDS011;45412;54.472;18.464;2022-11-09T17:30:43;25.20;;;14.20;;
59587;SDS011;45412;54.472;18.464;2022-11-09T17:33:49;23.00;;;12.90;;
59587;SDS011;45412;54.472;18.464;2022-11-09T17:36:56;25.40;;;14.00;;
59587;SDS011;45412;54.472;18.464;2022-11-09T17:40:10;24.70;;;13.00;;
59587;SDS011;45412;54.472;18.464;2022-11-09T17:43:17;23.20;;;12.70;;
59587;SDS011;45412;54.472;18.464;2022-11-09T17:46:23;24.50;;;13.00;;
59587;SDS011;45412;54.472;18.464;2022-11-09T17:49:30;24.00;;;13.30;;
59587;SDS011;45412;54.472;18.464;2022-11-09T17:52:37;25.40;;;15.00;;
59587;SDS011;45412;54.472;18.464;2022-11-09T17:55:48;24.10;;;14.30;;
59587;SDS011;45412;54.472;18.464;2022-11-09T17:59:05;25.60;;;14.00;;
59587;SDS011;45412;54.472;18.464;2022-11-09T18:02:24;22.40;;;12.10;;
59587;SDS011;45412;54.472;18.464;2022-11-09T18:05:31;26.20;;;13.50;;
59587;SDS011;45412;54.472;18.464;2022-11-09T18:08:39;28.40;;;14.70;;
59587;SDS011;45412;54.472;18.464;2022-11-09T18:11:46;22.60;;;12.90;;
59587;SDS011;45412;54.472;18.464;2022-11-09T18:14:53;25.80;;;13.80;;
59587;SDS011;45412;54.472;18.464;2022-11-09T18:17:59;22.40;;;12.80;;
59587;SDS011;45412;54.472;18.464;2022-11-09T18:21:11;26.60;;;14.80;;
59587;SDS011;45412;54.472;18.464;2022-11-09T18:24:20;25.40;;;14.30;;
59587;SDS011;45412;54.472;18.464;2022-11-09T18:27:26;26.40;;;14.20;;
59587;SDS011;45412;54.472;18.464;2022-11-09T18:30:36;24.40;;;13.60;;
59587;SDS011;45412;54.472;18.464;2022-11-09T18:33:47;25.70;;;14.20;;
59587;SDS011;45412;54.472;18.464;2022-11-09T18:36:57;22.90;;;13.50;;
59587;SDS011;45412;54.472;18.464;2022-11-09T18:40:06;24.60;;;14.00;;
59587;SDS011;45412;54.472;18.464;2022-11-09T18:43:13;23.90;;;13.40;;
59587;SDS011;45412;54.472;18.464;2022-11-09T18:46:20;25.00;;;12.80;;
59587;SDS011;45412;54.472;18.464;2022-11-09T18:49:28;24.50;;;13.20;;
59587;SDS011;45412;54.472;18.464;2022-11-09T18:52:35;24.00;;;12.50;;
59587;SDS011;45412;54.472;18.464;2022-11-09T18:55:42;29.50;;;14.90;;
59587;SDS011;45412;54.472;18.464;2022-11-09T18:58:50;26.60;;;13.60;;